sensor_id;sensor_type;location;lat;lon;timestamp;pressure;altitude;pressure_sealevel;temperature;humidity
77281;BME280;66339;47.262;17.144;2023-06-24T00:00:49;100490.12;;;24.68;57.01
77281;BME280;66339;47.262;17.144;2023-06-24T00:03:24;100473.09;;;24.68;57.12
77281;BME280;66339;47.262;17.144;2023-06-24T00:05:51;100470.38;;;24.68;57.19
77281;BME280;66339;47.262;17.144;2023-06-24T00:08:24;100471.50;;;24.67;57.24
77281;BME280;66339;47.262;17.144;2023-06-24T00:10:51;100467.69;;;24.68;57.29
77281;BME280;66339;47.262;17.144;2023-06-24T00:13:28;100478.50;;;24.68;57.43
77281;BME280;66339;47.262;17.144;2023-06-24T00:15:57;100447.66;;;24.69;57.50
77281;BME280;66339;47.262;17.144;2023-06-24T00:18:27;100446.87;;;24.68;57.54
77281;BME280;66339;47.262;17.144;2023-06-24T00:20:55;100455.78;;;24.69;57.61
77281;BME280;66339;47.262;17.144;2023-06-24T00:23:26;100451.44;;;24.68;57.65
77281;BME280;66339;47.262;17.144;2023-06-24T00:25:57;100456.84;;;24.68;57.68
77281;BME280;66339;47.262;17.144;2023-06-24T00:28:28;100452.28;;;24.68;57.73
77281;BME280;66339;47.262;17.144;2023-06-24T00:31:04;100447.66;;;24.69;57.76
77281;BME280;66339;47.262;17.144;2023-06-24T00:33:41;100466.59;;;24.69;57.80
77281;BME280;66339;47.262;17.144;2023-06-24T00:36:16;100452.28;;;24.68;57.76
77281;BME280;66339;47.262;17.144;2023-06-24T00:38:46;100460.87;;;24.70;57.74
77281;BME280;66339;47.262;17.144;2023-06-24T00:41:29;100454.97;;;24.68;57.71
77281;BME280;66339;47.262;17.144;2023-06-24T00:43:57;100470.38;;;24.68;57.68
77281;BME280;66339;47.262;17.144;2023-06-24T00:46:25;100485.53;;;24.69;57.64
77281;BME280;66339;47.262;17.144;2023-06-24T00:48:58;100501.75;;;24.69;57.63
77281;BME280;66339;47.262;17.144;2023-06-24T00:51:33;100492.53;;;24.70;57.63
77281;BME280;66339;47.262;17.144;2023-06-24T00:54:07;100496.81;;;24.71;57.63
77281;BME280;66339;47.262;17.144;2023-06-24T00:56:40;100507.16;;;24.69;57.67
77281;BME280;66339;47.262;17.144;2023-06-24T00:59:15;100515.28;;;24.69;57.65
77281;BME280;66339;47.262;17.144;2023-06-24T01:01:45;100535.00;;;24.69;57.64
77281;BME280;66339;47.262;17.144;2023-06-24T01:04:16;100535.81;;;24.70;57.55
77281;BME280;66339;47.262;17.144;2023-06-24T01:06:56;100531.97;;;24.71;57.54
77281;BME280;66339;47.262;17.144;2023-06-24T01:09:26;100535.00;;;24.69;57.62
77281;BME280;66339;47.262;17.144;2023-06-24T01:11:58;100542.31;;;24.69;57.65
77281;BME280;66339;47.262;17.144;2023-06-24T01:14:25;100561.25;;;24.69;57.67
77281;BME280;66339;47.262;17.144;2023-06-24T01:17:03;100567.47;;;24.69;57.71
77281;BME280;66339;47.262;17.144;2023-06-24T01:27:32;100589.91;;;24.70;57.58
77281;BME280;66339;47.262;17.144;2023-06-24T01:33:12;100591.50;;;24.71;57.52
77281;BME280;66339;47.262;17.144;2023-06-24T01:35:50;100599.13;;;24.69;57.58
77281;BME280;66339;47.262;17.144;2023-06-24T01:38:22;100606.13;;;24.70;57.63
77281;BME280;66339;47.262;17.144;2023-06-24T01:40:56;100611.53;;;24.70;57.75
77281;BME280;66339;47.262;17.144;2023-06-24T01:43:26;100598.81;;;24.70;57.81
77281;BME280;66339;47.262;17.144;2023-06-24T01:46:02;100595.31;;;24.70;57.91
77281;BME280;66339;47.262;17.144;2023-06-24T01:48:34;100589.91;;;24.70;57.88
77281;BME280;66339;47.262;17.144;2023-06-24T01:51:10;100595.31;;;24.70;58.00
77281;BME280;66339;47.262;17.144;2023-06-24T01:56:30;100591.50;;;24.71;58.13
77281;BME280;66339;47.262;17.144;2023-06-24T01:59:04;100590.69;;;24.70;58.35
77281;BME280;66339;47.262;17.144;2023-06-24T02:01:40;100585.28;;;24.70;58.42
77281;BME280;66339;47.262;17.144;2023-06-24T02:04:09;100587.19;;;24.70;58.39
77281;BME280;66339;47.262;17.144;2023-06-24T02:06:41;100570.97;;;24.70;58.45
77281;BME280;66339;47.262;17.144;2023-06-24T02:09:12;100557.44;;;24.70;58.46
77281;BME280;66339;47.262;17.144;2023-06-24T02:11:40;100553.94;;;24.69;58.47
77281;BME280;66339;47.262;17.144;2023-06-24T02:14:16;100560.47;;;24.68;58.52
77281;BME280;66339;47.262;17.144;2023-06-24T02:16:47;100553.75;;;24.66;58.66
77281;BME280;66339;47.262;17.144;2023-06-24T02:19:24;100547.22;;;24.67;58.60
77281;BME280;66339;47.262;17.144;2023-06-24T02:21:59;100541.03;;;24.66;58.64
77281;BME280;66339;47.262;17.144;2023-06-24T02:24:40;100531.00;;;24.67;58.60
77281;BME280;66339;47.262;17.144;2023-06-24T02:27:14;100540.22;;;24.66;58.67
77281;BME280;66339;47.262;17.144;2023-06-24T02:29:41;100544.53;;;24.67;58.68
77281;BME280;66339;47.262;17.144;2023-06-24T02:32:09;100551.03;;;24.66;58.73
77281;BME280;66339;47.262;17.144;2023-06-24T02:34:36;100559.47;;;24.64;58.83
77281;BME280;66339;47.262;17.144;2023-06-24T02:37:12;100556.78;;;24.64;58.79
77281;BME280;66339;47.262;17.144;2023-06-24T02:39:50;100551.03;;;24.66;58.74
77281;BME280;66339;47.262;17.144;2023-06-24T02:42:24;100551.53;;;24.68;58.78
77281;BME280;66339;47.262;17.144;2023-06-24T02:45:01;100539.91;;;24.67;58.83
77281;BME280;66339;47.262;17.144;2023-06-24T02:47:46;100532.59;;;24.68;58.86
77281;BME280;66339;47.262;17.144;2023-06-24T02:50:25;100543.41;;;24.68;58.89
77281;BME280;66339;47.262;17.144;2023-06-24T02:52:52;100535.00;;;24.69;58.97
77281;BME280;66339;47.262;17.144;2023-06-24T02:55:19;100521.78;;;24.68;59.01
77281;BME280;66339;47.262;17.144;2023-06-24T02:57:48;100521.78;;;24.68;59.10
77281;BME280;66339;47.262;17.144;2023-06-24T03:00:17;100514.78;;;24.67;59.06
77281;BME280;66339;47.262;17.144;2023-06-24T03:02:45;100519.38;;;24.66;59.10
77281;BME280;66339;47.262;17.144;2023-06-24T03:05:16;100525.59;;;24.67;59.17
77281;BME280;66339;47.262;17.144;2023-06-24T03:07:48;100526.69;;;24.66;59.12
77281;BME280;66339;47.262;17.144;2023-06-24T03:10:22;100525.59;;;24.67;59.19
77281;BME280;66339;47.262;17.144;2023-06-24T03:12:52;100529.41;;;24.66;59.25
77281;BME280;66339;47.262;17.144;2023-06-24T03:15:24;100533.22;;;24.65;59.22
77281;BME280;66339;47.262;17.144;2023-06-24T03:18:01;100546.44;;;24.66;59.14
77281;BME280;66339;47.262;17.144;2023-06-24T03:20:37;100542.94;;;24.66;59.19
77281;BME280;66339;47.262;17.144;2023-06-24T03:23:07;100534.31;;;24.64;59.16
77281;BME280;66339;47.262;17.144;2023-06-24T03:25:40;100537.00;;;24.64;59.14
77281;BME280;66339;47.262;17.144;2023-06-24T03:28:14;100533.22;;;24.65;59.13
77281;BME280;66339;47.262;17.144;2023-06-24T03:30:46;100537.00;;;24.64;59.22
77281;BME280;66339;47.262;17.144;2023-06-24T03:33:21;100537.84;;;24.64;59.26
77281;BME280;66339;47.262;17.144;2023-06-24T03:35:53;100539.72;;;24.64;59.25
77281;BME280;66339;47.262;17.144;2023-06-24T03:38:20;100535.41;;;24.63;59.30
77281;BME280;66339;47.262;17.144;2023-06-24T03:40:55;100530.00;;;24.63;59.32
77281;BME280;66339;47.262;17.144;2023-06-24T03:43:30;100530.00;;;24.63;59.33
77281;BME280;66339;47.262;17.144;2023-06-24T03:46:03;100537.00;;;24.64;59.34
77281;BME280;66339;47.262;17.144;2023-06-24T03:48:35;100531.91;;;24.62;59.37
77281;BME280;66339;47.262;17.144;2023-06-24T03:51:02;100533.81;;;24.62;59.37
77281;BME280;66339;47.262;17.144;2023-06-24T03:53:29;100541.94;;;24.62;59.36
77281;BME280;66339;47.262;17.144;2023-06-24T03:56:03;100542.25;;;24.60;59.39
77281;BME280;66339;47.262;17.144;2023-06-24T03:58:32;100550.06;;;24.62;59.39
77281;BME280;66339;47.262;17.144;2023-06-24T04:01:09;100555.47;;;24.62;59.39
77281;BME280;66339;47.262;17.144;2023-06-24T04:03:40;100556.56;;;24.61;59.39
77281;BME280;66339;47.262;17.144;2023-06-24T04:06:23;100557.66;;;24.60;59.43
77281;BME280;66339;47.262;17.144;2023-06-24T04:08:54;100568.47;;;24.60;59.45
77281;BME280;66339;47.262;17.144;2023-06-24T04:11:25;100570.38;;;24.59;59.44
77281;BME280;66339;47.262;17.144;2023-06-24T04:13:58;100579.28;;;24.60;59.42
77281;BME280;66339;47.262;17.144;2023-06-24T04:19:10;100579.28;;;24.60;59.40
77281;BME280;66339;47.262;17.144;2023-06-24T04:27:27;100587.31;;;24.65;54.85
77281;BME280;66339;47.262;17.144;2023-06-24T04:30:05;100604.34;;;24.52;53.53
77281;BME280;66339;47.262;17.144;2023-06-24T04:32:38;100610.88;;;24.37;53.39
77281;BME280;66339;47.262;17.144;2023-06-24T04:40:42;100623.66;;;24.04;53.17
77281;BME280;66339;47.262;17.144;2023-06-24T04:43:22;100619.94;;;23.99;52.71
77281;BME280;66339;47.262;17.144;2023-06-24T04:45:49;100622.75;;;23.94;52.58
77281;BME280;66339;47.262;17.144;2023-06-24T04:48:38;100628.22;;;23.89;52.35
77281;BME280;66339;47.262;17.144;2023-06-24T05:02:28;100645.91;;;23.68;52.86
77281;BME280;66339;47.262;17.144;2023-06-24T05:05:14;100657.56;;;23.63;52.81
77281;BME280;66339;47.262;17.144;2023-06-24T05:11:07;100660.84;;;23.60;52.79
77281;BME280;66339;47.262;17.144;2023-06-24T05:13:45;100655.81;;;23.53;53.07
77281;BME280;66339;47.262;17.144;2023-06-24T05:16:12;100655.81;;;23.53;53.08
77281;BME280;66339;47.262;17.144;2023-06-24T05:18:41;100655.41;;;23.46;53.23
77281;BME280;66339;47.262;17.144;2023-06-24T05:27:03;100658.03;;;23.51;53.26
77281;BME280;66339;47.262;17.144;2023-06-24T05:35:15;100681.81;;;23.49;53.87
77281;BME280;66339;47.262;17.144;2023-06-24T05:40:47;100682.81;;;23.53;53.56
77281;BME280;66339;47.262;17.144;2023-06-24T05:43:25;100687.19;;;23.49;53.54
77281;BME280;66339;47.262;17.144;2023-06-24T05:46:17;100699.41;;;23.47;53.50
77281;BME280;66339;47.262;17.144;2023-06-24T05:48:54;100693.72;;;23.48;53.83
77281;BME280;66339;47.262;17.144;2023-06-24T05:51:34;100685.91;;;23.47;53.51
77281;BME280;66339;47.262;17.144;2023-06-24T05:54:08;100694.28;;;23.45;53.74
77281;BME280;66339;47.262;17.144;2023-06-24T05:57:25;100690.78;;;23.45;53.84
77281;BME280;66339;47.262;17.144;2023-06-24T05:59:38;100689.09;;;23.49;53.87
77281;BME280;66339;47.262;17.144;2023-06-24T06:02:14;100692.81;;;23.53;53.69
77281;BME280;66339;47.262;17.144;2023-06-24T06:04:46;100683.66;;;23.54;53.56
77281;BME280;66339;47.262;17.144;2023-06-24T06:07:24;100684.44;;;23.55;53.66
77281;BME280;66339;47.262;17.144;2023-06-24T06:10:12;100678.75;;;23.56;53.98
77281;BME280;66339;47.262;17.144;2023-06-24T06:12:48;100680.06;;;23.59;53.72
77281;BME280;66339;47.262;17.144;2023-06-24T06:15:18;100676.25;;;23.60;53.86
77281;BME280;66339;47.262;17.144;2023-06-24T06:17:58;100678.38;;;23.63;53.93
77281;BME280;66339;47.262;17.144;2023-06-24T06:23:37;100690.56;;;23.60;53.80
77281;BME280;66339;47.262;17.144;2023-06-24T06:26:09;100686.25;;;23.59;53.90
77281;BME280;66339;47.262;17.144;2023-06-24T06:28:48;100676.25;;;23.60;54.01
77281;BME280;66339;47.262;17.144;2023-06-24T06:31:26;100685.47;;;23.59;54.03
77281;BME280;66339;47.262;17.144;2023-06-24T06:33:59;100672.44;;;23.61;54.04
77281;BME280;66339;47.262;17.144;2023-06-24T06:36:33;100679.44;;;23.62;54.02
77281;BME280;66339;47.262;17.144;2023-06-24T06:39:07;100682.66;;;23.64;53.84
77281;BME280;66339;47.262;17.144;2023-06-24T06:41:49;100681.06;;;23.63;53.79
77281;BME280;66339;47.262;17.144;2023-06-24T06:44:17;100694.56;;;23.63;53.72
77281;BME280;66339;47.262;17.144;2023-06-24T06:46:45;100677.28;;;23.64;53.71
77281;BME280;66339;47.262;17.144;2023-06-24T06:49:21;100675.69;;;23.63;53.44
77281;BME280;66339;47.262;17.144;2023-06-24T06:51:48;100679.16;;;23.63;53.46
77281;BME280;66339;47.262;17.144;2023-06-24T06:54:24;100686.47;;;23.63;53.56
77281;BME280;66339;47.262;17.144;2023-06-24T06:56:52;100690.56;;;23.60;54.19
77281;BME280;66339;47.262;17.144;2023-06-24T06:59:23;100701.66;;;23.59;53.64
77281;BME280;66339;47.262;17.144;2023-06-24T07:01:59;100696.31;;;23.53;54.15
77281;BME280;66339;47.262;17.144;2023-06-24T07:04:39;100694.06;;;23.61;54.01
77281;BME280;66339;47.262;17.144;2023-06-24T07:07:11;100688.63;;;23.66;53.45
77281;BME280;66339;47.262;17.144;2023-06-24T07:09:44;100690.47;;;23.65;53.48
77281;BME280;66339;47.262;17.144;2023-06-24T07:12:14;100692.47;;;23.60;53.57
77281;BME280;66339;47.262;17.144;2023-06-24T07:14:46;100692.38;;;23.65;53.12
77281;BME280;66339;47.262;17.144;2023-06-24T07:17:19;100690.72;;;23.69;53.01
77281;BME280;66339;47.262;17.144;2023-06-24T07:19:46;100687.53;;;23.67;53.13
77281;BME280;66339;47.262;17.144;2023-06-24T07:22:23;100692.34;;;23.70;53.58
77281;BME280;66339;47.262;17.144;2023-06-24T07:24:50;100695.53;;;23.72;53.80
77281;BME280;66339;47.262;17.144;2023-06-24T07:27:18;100699.25;;;23.76;53.95
77281;BME280;66339;47.262;17.144;2023-06-24T07:29:50;100697.34;;;23.76;54.11
77281;BME280;66339;47.262;17.144;2023-06-24T07:32:20;100698.94;;;23.77;53.90
77281;BME280;66339;47.262;17.144;2023-06-24T07:34:53;100705.66;;;23.80;54.14
77281;BME280;66339;47.262;17.144;2023-06-24T07:37:22;100695.38;;;23.82;54.10
77281;BME280;66339;47.262;17.144;2023-06-24T07:39:59;100710.97;;;23.85;53.84
77281;BME280;66339;47.262;17.144;2023-06-24T07:42:27;100707.78;;;23.83;53.69
77281;BME280;66339;47.262;17.144;2023-06-24T07:44:58;100702.59;;;23.87;53.57
77281;BME280;66339;47.262;17.144;2023-06-24T07:47:30;100704.19;;;23.88;53.70
77281;BME280;66339;47.262;17.144;2023-06-24T07:49:57;100708.19;;;23.90;53.99
77281;BME280;66339;47.262;17.144;2023-06-24T07:52:27;100715.19;;;23.91;54.08
77281;BME280;66339;47.262;17.144;2023-06-24T07:54:57;100721.13;;;23.93;54.21
77281;BME280;66339;47.262;17.144;2023-06-24T07:57:26;100716.50;;;23.94;54.12
77281;BME280;66339;47.262;17.144;2023-06-24T07:59:54;100709.22;;;23.94;54.17
77281;BME280;66339;47.262;17.144;2023-06-24T08:02:30;100716.22;;;23.95;54.07
77281;BME280;66339;47.262;17.144;2023-06-24T08:04:57;100717.81;;;23.96;54.01
77281;BME280;66339;47.262;17.144;2023-06-24T08:07:33;100717.81;;;23.96;54.08
77281;BME280;66339;47.262;17.144;2023-06-24T08:10:11;100719.44;;;23.97;54.01
77281;BME280;66339;47.262;17.144;2023-06-24T08:12:41;100722.94;;;23.98;54.01
77281;BME280;66339;47.262;17.144;2023-06-24T08:15:11;100708.63;;;23.97;54.10
77281;BME280;66339;47.262;17.144;2023-06-24T08:17:38;100721.03;;;23.98;54.05
77281;BME280;66339;47.262;17.144;2023-06-24T08:20:09;100718.00;;;24.00;53.99
77281;BME280;66339;47.262;17.144;2023-06-24T08:22:38;100728.53;;;24.02;54.38
77281;BME280;66339;47.262;17.144;2023-06-24T08:25:08;100721.25;;;24.02;54.09
77281;BME280;66339;47.262;17.144;2023-06-24T08:27:35;100724.75;;;24.03;53.92
77281;BME280;66339;47.262;17.144;2023-06-24T08:30:10;100727.44;;;24.03;53.97
77281;BME280;66339;47.262;17.144;2023-06-24T08:32:41;100730.94;;;24.03;53.95
77281;BME280;66339;47.262;17.144;2023-06-24T08:35:11;100722.84;;;24.03;54.11
77281;BME280;66339;47.262;17.144;2023-06-24T08:37:41;100733.34;;;24.05;54.16
77281;BME280;66339;47.262;17.144;2023-06-24T08:40:12;100746.84;;;24.05;54.18
77281;BME280;66339;47.262;17.144;2023-06-24T08:42:47;100743.06;;;24.06;54.24
77281;BME280;66339;47.262;17.144;2023-06-24T08:45:14;100740.38;;;24.06;54.31
77281;BME280;66339;47.262;17.144;2023-06-24T08:47:46;100745.78;;;24.06;54.12
77281;BME280;66339;47.262;17.144;2023-06-24T08:50:15;100728.44;;;24.07;54.05
77281;BME280;66339;47.262;17.144;2023-06-24T08:52:51;100740.06;;;24.07;54.32
77281;BME280;66339;47.262;17.144;2023-06-24T08:55:19;100743.06;;;24.06;54.29
77281;BME280;66339;47.262;17.144;2023-06-24T08:57:53;100752.47;;;24.08;54.21
77281;BME280;66339;47.262;17.144;2023-06-24T09:00:23;100737.06;;;24.09;54.07
77281;BME280;66339;47.262;17.144;2023-06-24T09:02:55;100740.84;;;24.08;54.18
77281;BME280;66339;47.262;17.144;2023-06-24T09:05:23;100749.47;;;24.10;54.08
77281;BME280;66339;47.262;17.144;2023-06-24T09:07:58;100744.09;;;24.10;54.12
77281;BME280;66339;47.262;17.144;2023-06-24T09:10:32;100749.47;;;24.10;54.12
77281;BME280;66339;47.262;17.144;2023-06-24T09:13:00;100741.06;;;24.11;54.11
77281;BME280;66339;47.262;17.144;2023-06-24T09:15:34;100747.28;;;24.12;54.12
77281;BME280;66339;47.262;17.144;2023-06-24T09:18:05;100741.06;;;24.11;54.19
77281;BME280;66339;47.262;17.144;2023-06-24T09:20:36;100736.47;;;24.12;54.44
77281;BME280;66339;47.262;17.144;2023-06-24T09:23:16;100736.47;;;24.12;54.35
77281;BME280;66339;47.262;17.144;2023-06-24T09:25:43;100738.06;;;24.13;54.31
77281;BME280;66339;47.262;17.144;2023-06-24T09:28:12;100735.66;;;24.11;54.49
77281;BME280;66339;47.262;17.144;2023-06-24T09:30:39;100744.34;;;24.08;54.61
77281;BME280;66339;47.262;17.144;2023-06-24T09:33:10;100739.75;;;24.09;54.48
77281;BME280;66339;47.262;17.144;2023-06-24T09:35:40;100737.66;;;24.06;54.49
77281;BME280;66339;47.262;17.144;2023-06-24T09:38:09;100730.62;;;24.05;54.60
77281;BME280;66339;47.262;17.144;2023-06-24T09:40:38;100738.25;;;24.03;54.54
77281;BME280;66339;47.262;17.144;2023-06-24T09:43:05;100739.84;;;24.04;54.50
77281;BME280;66339;47.262;17.144;2023-06-24T09:45:33;100736.03;;;24.05;54.45
77281;BME280;66339;47.262;17.144;2023-06-24T09:48:03;100740.66;;;24.04;54.45
77281;BME280;66339;47.262;17.144;2023-06-24T09:50:33;100749.28;;;24.06;54.45
77281;BME280;66339;47.262;17.144;2023-06-24T09:53:00;100746.84;;;24.05;54.46
77281;BME280;66339;47.262;17.144;2023-06-24T09:55:27;100753.34;;;24.04;54.51
77281;BME280;66339;47.262;17.144;2023-06-24T09:57:55;100759.88;;;24.03;54.53
77281;BME280;66339;47.262;17.144;2023-06-24T10:00:29;100767.09;;;24.07;54.65
77281;BME280;66339;47.262;17.144;2023-06-24T10:02:56;100749.47;;;24.10;54.33
77281;BME280;66339;47.262;17.144;2023-06-24T10:05:30;100759.78;;;24.08;54.27
77281;BME280;66339;47.262;17.144;2023-06-24T10:07:57;100765.75;;;24.05;54.74
77281;BME280;66339;47.262;17.144;2023-06-24T10:10:26;100750.88;;;24.07;54.40
77281;BME280;66339;47.262;17.144;2023-06-24T10:12:56;100747.84;;;24.09;54.53
77281;BME280;66339;47.262;17.144;2023-06-24T10:15:26;100749.75;;;24.08;54.62
77281;BME280;66339;47.262;17.144;2023-06-24T10:17:54;100743.28;;;24.09;54.54
77281;BME280;66339;47.262;17.144;2023-06-24T10:20:48;100747.28;;;24.12;54.35
77281;BME280;66339;47.262;17.144;2023-06-24T10:23:20;100756.47;;;24.11;54.52
77281;BME280;66339;47.262;17.144;2023-06-24T10:25:53;100758.87;;;24.12;54.42
77281;BME280;66339;47.262;17.144;2023-06-24T10:28:23;100754.28;;;24.13;54.30
77281;BME280;66339;47.262;17.144;2023-06-24T10:30:59;100756.47;;;24.11;54.19
77281;BME280;66339;47.262;17.144;2023-06-24T10:33:27;100749.47;;;24.10;54.12
77281;BME280;66339;47.262;17.144;2023-06-24T10:35:55;100742.44;;;24.09;54.12
77281;BME280;66339;47.262;17.144;2023-06-24T10:38:25;100747.59;;;24.10;53.86
77281;BME280;66339;47.262;17.144;2023-06-24T10:40:51;100742.44;;;24.09;53.74
77281;BME280;66339;47.262;17.144;2023-06-24T10:43:31;100743.06;;;24.06;53.99
77281;BME280;66339;47.262;17.144;2023-06-24T10:46:00;100742.06;;;24.02;54.20
77281;BME280;66339;47.262;17.144;2023-06-24T10:48:31;100736.13;;;23.99;54.09
77281;BME280;66339;47.262;17.144;2023-06-24T10:51:01;100735.66;;;23.97;54.01
77281;BME280;66339;47.262;17.144;2023-06-24T10:53:30;100730.25;;;23.97;54.05
77281;BME280;66339;47.262;17.144;2023-06-24T10:55:59;100730.25;;;23.97;54.30
77281;BME280;66339;47.262;17.144;2023-06-24T10:58:30;100725.91;;;23.96;54.10
77281;BME280;66339;47.262;17.144;2023-06-24T11:01:06;100724.84;;;23.97;54.17
77281;BME280;66339;47.262;17.144;2023-06-24T11:03:33;100731.31;;;23.96;54.08
77281;BME280;66339;47.262;17.144;2023-06-24T11:06:11;100722.94;;;23.98;54.05
77281;BME280;66339;47.262;17.144;2023-06-24T11:08:44;100727.00;;;23.95;54.36
77281;BME280;66339;47.262;17.144;2023-06-24T11:11:20;100718.59;;;23.97;53.79
77281;BME280;66339;47.262;17.144;2023-06-24T11:13:47;100724.84;;;23.97;53.62
77281;BME280;66339;47.262;17.144;2023-06-24T11:16:28;100717.81;;;23.96;53.75
77281;BME280;66339;47.262;17.144;2023-06-24T11:18:56;100723.50;;;23.95;53.76
77281;BME280;66339;47.262;17.144;2023-06-24T11:21:30;100714.63;;;23.94;53.71
77281;BME280;66339;47.262;17.144;2023-06-24T11:24:05;100710.31;;;23.93;53.80
77281;BME280;66339;47.262;17.144;2023-06-24T11:26:33;100716.78;;;23.92;53.85
77281;BME280;66339;47.262;17.144;2023-06-24T11:29:00;100708.19;;;23.90;53.68
77281;BME280;66339;47.262;17.144;2023-06-24T11:31:30;100700.59;;;23.92;53.67
77281;BME280;66339;47.262;17.144;2023-06-24T11:33:59;100699.50;;;23.93;53.84
77281;BME280;66339;47.262;17.144;2023-06-24T11:36:32;100704.59;;;23.95;53.76
77281;BME280;66339;47.262;17.144;2023-06-24T11:39:09;100700.00;;;23.95;53.79
77281;BME280;66339;47.262;17.144;2023-06-24T11:41:59;100704.91;;;23.93;53.87
77281;BME280;66339;47.262;17.144;2023-06-24T11:44:38;100699.19;;;23.95;53.87
77281;BME280;66339;47.262;17.144;2023-06-24T11:47:09;100704.59;;;23.95;53.79
77281;BME280;66339;47.262;17.144;2023-06-24T11:49:51;100698.41;;;23.94;53.74
77281;BME280;66339;47.262;17.144;2023-06-24T11:52:19;100694.59;;;23.95;53.83
77281;BME280;66339;47.262;17.144;2023-06-24T11:54:47;100702.22;;;23.93;53.99
77281;BME280;66339;47.262;17.144;2023-06-24T11:57:16;100702.22;;;23.93;54.07
77281;BME280;66339;47.262;17.144;2023-06-24T11:59:46;100710.00;;;23.95;54.00
77281;BME280;66339;47.262;17.144;2023-06-24T12:02:18;100705.41;;;23.95;54.02
77281;BME280;66339;47.262;17.144;2023-06-24T12:04:51;100714.81;;;23.98;53.97
77281;BME280;66339;47.262;17.144;2023-06-24T12:07:32;100699.41;;;23.98;53.80
77281;BME280;66339;47.262;17.144;2023-06-24T12:10:08;100703.22;;;23.97;53.63
77281;BME280;66339;47.262;17.144;2023-06-24T12:12:35;100702.69;;;23.95;53.79
77281;BME280;66339;47.262;17.144;2023-06-24T12:15:05;100709.41;;;23.98;53.66
77281;BME280;66339;47.262;17.144;2023-06-24T12:17:39;100702.69;;;23.95;53.89
77281;BME280;66339;47.262;17.144;2023-06-24T12:20:15;100709.69;;;23.96;53.82
77281;BME280;66339;47.262;17.144;2023-06-24T12:22:42;100709.22;;;23.94;53.94
77281;BME280;66339;47.262;17.144;2023-06-24T12:25:12;100708.91;;;23.96;53.84
77281;BME280;66339;47.262;17.144;2023-06-24T12:27:45;100705.41;;;23.95;54.04
77281;BME280;66339;47.262;17.144;2023-06-24T12:30:18;100705.09;;;23.97;53.99
77281;BME280;66339;47.262;17.144;2023-06-24T12:32:54;100704.03;;;23.98;53.96
77281;BME280;66339;47.262;17.144;2023-06-24T12:38:06;100694.59;;;23.95;54.11
77281;BME280;66339;47.262;17.144;2023-06-24T12:40:39;100688.09;;;23.96;54.06
77281;BME280;66339;47.262;17.144;2023-06-24T12:43:12;100697.00;;;23.97;54.12
77281;BME280;66339;47.262;17.144;2023-06-24T12:45:43;100693.22;;;23.98;54.04
77281;BME280;66339;47.262;17.144;2023-06-24T12:48:13;100697.81;;;23.97;53.97
77281;BME280;66339;47.262;17.144;2023-06-24T12:50:51;100687.00;;;23.97;54.08
77281;BME280;66339;47.262;17.144;2023-06-24T12:53:18;100687.50;;;23.99;53.99
77281;BME280;66339;47.262;17.144;2023-06-24T12:55:44;100689.09;;;24.00;54.03
77281;BME280;66339;47.262;17.144;2023-06-24T12:58:16;100687.72;;;24.03;54.01
77281;BME280;66339;47.262;17.144;2023-06-24T13:00:49;100688.28;;;24.00;53.94
77281;BME280;66339;47.262;17.144;2023-06-24T13:03:21;100690.72;;;24.02;54.13
77281;BME280;66339;47.262;17.144;2023-06-24T13:05:57;100693.41;;;24.02;54.13
77281;BME280;66339;47.262;17.144;2023-06-24T13:08:30;100694.22;;;24.02;54.47
77281;BME280;66339;47.262;17.144;2023-06-24T13:11:01;100686.12;;;24.02;54.08
77281;BME280;66339;47.262;17.144;2023-06-24T13:13:32;100686.91;;;24.03;54.11
77281;BME280;66339;47.262;17.144;2023-06-24T13:16:04;100701.22;;;24.03;53.99
77281;BME280;66339;47.262;17.144;2023-06-24T13:18:30;100698.81;;;24.02;54.08
77281;BME280;66339;47.262;17.144;2023-06-24T13:21:03;100702.00;;;24.04;53.90
77281;BME280;66339;47.262;17.144;2023-06-24T13:23:44;100700.41;;;24.03;53.76
77281;BME280;66339;47.262;17.144;2023-06-24T13:26:17;100704.22;;;24.02;53.73
77281;BME280;66339;47.262;17.144;2023-06-24T13:28:50;100706.94;;;24.02;53.77
77281;BME280;66339;47.262;17.144;2023-06-24T13:31:23;100697.19;;;24.00;53.64
77281;BME280;66339;47.262;17.144;2023-06-24T13:33:53;100698.00;;;24.01;53.81
77281;BME280;66339;47.262;17.144;2023-06-24T13:36:31;100690.19;;;23.99;53.93
77281;BME280;66339;47.262;17.144;2023-06-24T13:39:00;100695.28;;;24.01;53.93
77281;BME280;66339;47.262;17.144;2023-06-24T13:41:36;100701.00;;;23.99;53.86
77281;BME280;66339;47.262;17.144;2023-06-24T13:44:04;100695.59;;;23.99;53.75
77281;BME280;66339;47.262;17.144;2023-06-24T13:46:36;100704.81;;;23.98;53.81
77281;BME280;66339;47.262;17.144;2023-06-24T13:49:06;100705.63;;;23.99;53.88
77281;BME280;66339;47.262;17.144;2023-06-24T13:51:41;100701.00;;;23.99;53.82
77281;BME280;66339;47.262;17.144;2023-06-24T13:54:22;100695.59;;;23.99;53.76
77281;BME280;66339;47.262;17.144;2023-06-24T13:56:55;100710.22;;;23.98;53.70
77281;BME280;66339;47.262;17.144;2023-06-24T13:59:25;100710.22;;;23.98;53.76
77281;BME280;66339;47.262;17.144;2023-06-24T14:01:58;100703.22;;;23.97;53.70
77281;BME280;66339;47.262;17.144;2023-06-24T14:04:31;100700.00;;;23.95;53.82
77281;BME280;66339;47.262;17.144;2023-06-24T14:07:03;100702.41;;;23.97;53.73
77281;BME280;66339;47.262;17.144;2023-06-24T14:09:31;100707.53;;;23.98;53.66